Latest Weather Observations for Hobart Airport

IDT60801

Issued at 8:05 am EST Saturday 2 August 2014 (issued every 30 minutes, with the page automatically refreshed every 10 minutes)

About weather observations | Map of weather stations | Latest weather observations for TAS | Other Formats
Station Details ID: 094008 Name: HOBART AIRPORT Lat: -42.83 Lon: 147.50 Height: 4.0 m
Data from the previous 72 hours. | See also: Recent months at Hobart Airport
Date/Time
EST
Temp
°C
App
Temp
°C
Dew
Point
Rel
Hum
%
Delta-T
°C
Wind Press
QNH
hPa
Press
MSL
hPa
Rain
since 9 am
mm
Dir
 
Spd
km/h
Gust
km/h
Spd
kts
Gust
kts
02/08:00am 3.8 -1.4 0.4 78 1.3 NNW 17 22 9 12 1021.8 1021.9 8.8
02/07:30am 3.8 -2.8 -0.2 75 1.5 NW 24 30 13 16 1021.4 - 8.8
02/07:00am 3.5 -2.7 0.0 78 1.3 NW 22 30 12 16 1020.7 1020.8 8.8
02/06:30am 3.7 -2.5 -0.4 74 1.5 NNW 22 32 12 17 1020.3 - 8.8
02/06:00am 3.7 -2.1 -0.1 76 1.4 NNW 20 26 11 14 1019.8 1019.9 8.8
02/05:30am 4.0 -1.8 -0.3 73 1.6 NNW 20 26 11 14 1019.5 - 8.8
02/05:00am 2.9 -2.1 -1.3 74 1.5 NW 15 19 8 10 1019.4 1019.5 8.8
02/04:30am 4.3 -0.9 -0.2 72 1.7 NNW 17 26 9 14 1019.2 - 8.8
02/04:00am 4.3 -2.0 -0.9 69 1.9 NNW 22 26 12 14 1018.9 1019.0 8.8
02/03:30am 4.2 -1.6 -1.6 66 2.1 WNW 19 24 10 13 1018.6 - 8.8
02/03:00am 3.5 -0.8 -1.8 68 1.9 WNW 11 17 6 9 1018.4 1018.5 8.8
02/02:30am 5.3 -0.6 -2.5 57 2.8 WSW 19 32 10 17 1018.3 - 8.8
02/02:00am 3.1 -0.8 -1.4 72 1.6 NNW 9 28 5 15 1018.0 1018.1 8.8
02/01:30am 3.7 -1.0 -1.9 67 2.0 W 13 15 7 8 1017.4 - 8.8
02/01:00am 4.7 -0.4 -2.3 60 2.5 W 15 20 8 11 1017.0 1017.1 8.8
02/12:30am 5.1 -0.5 -2.5 58 2.7 W 17 22 9 12 1016.5 - 8.8
02/12:00am 4.4 -1.0 -1.7 64 2.2 W 17 22 9 12 1016.2 1016.3 8.8
 
Date/Time
EST
Temp
°C
App
Temp
°C
Dew
Point
Rel
Hum
%
Delta-T
°C
Wind Press
QNH
hPa
Press
MSL
hPa
Rain
since 9 am
mm
Dir
 
Spd
km/h
Gust
km/h
Spd
kts
Gust
kts
01/11:30pm 4.4 0.5 -1.7 64 2.2 NW 9 15 5 8 1015.8 - 8.8
01/11:00pm 4.5 -0.8 -0.6 69 1.9 WSW 17 26 9 14 1015.1 1015.1 8.8
01/10:30pm 4.4 0.3 -0.1 72 1.7 SSW 11 19 6 10 1014.7 - 8.8
01/10:00pm 4.9 -0.9 -0.4 68 2.0 SW 20 30 11 16 1014.0 1014.0 8.8
01/09:30pm 5.3 -2.8 -0.5 66 2.2 SW 32 44 17 24 1013.6 - 8.8
01/09:00pm 4.8 -3.4 0.1 71 1.8 SW 33 52 18 28 1013.1 1013.1 8.8
01/08:30pm 5.0 -4.7 0.6 73 1.7 SW 41 59 22 32 1012.6 - 8.8
01/08:01pm 5.0 -2.5 1.5 78 1.4 SW 30 48 16 26 1011.7 - 8.8
01/08:00pm 5.0 -2.0 1.7 79 1.3 SW 28 39 15 21 1011.7 1011.7 8.8
01/07:30pm 5.2 -1.1 1.7 78 1.4 S 24 30 13 16 1011.1 - 8.6
01/07:00pm 5.6 -2.3 1.0 72 1.8 SW 32 44 17 24 1010.0 1010.0 8.6
01/06:30pm 6.0 0.4 0.1 66 2.3 SW 19 26 10 14 1008.7 - 8.6
01/06:00pm 6.3 0.8 0.7 67 2.2 SW 19 28 10 15 1008.0 1008.0 8.6
01/05:30pm 6.5 0.9 1.0 68 2.2 SW 20 32 11 17 1006.9 - 8.4
01/05:00pm 6.5 -0.3 1.0 68 2.2 SSW 26 37 14 20 1005.4 1005.4 8.0
01/04:54pm 7.2 -0.1 -0.2 59 2.9 WSW 28 50 15 27 1005.3 - 8.0
01/04:30pm 7.0 0.5 0.1 61 2.7 WSW 24 39 13 21 1004.4 - 8.0
01/04:00pm 6.8 1.4 1.1 67 2.3 WSW 19 26 10 14 1003.7 1003.7 8.0
01/03:30pm 6.4 1.9 2.0 73 1.8 S 15 22 8 12 1002.8 - 8.0
01/03:00pm 6.5 1.8 0.7 66 2.3 SSW 15 20 8 11 1002.0 1002.0 8.0
01/02:30pm 5.6 -1.8 1.9 77 1.5 SW 30 37 16 20 1001.2 - 8.0
01/02:00pm 4.7 0.3 2.5 86 0.9 S 15 17 8 9 1000.2 1000.2 7.8
01/01:30pm 4.5 -2.9 2.0 84 1.0 WSW 30 39 16 21 999.6 - 6.8
01/01:05pm 5.3 -0.1 2.4 81 1.2 WSW 20 30 11 16 998.8 - 4.8
01/01:00pm 5.4 0.2 2.7 83 1.1 WSW 19 26 10 14 998.5 998.5 4.6
01/12:41pm 4.9 -0.3 2.5 84 1.0 WSW 19 26 10 14 998.0 - 4.6
01/12:30pm 4.5 -2.4 2.3 86 0.9 SW 28 37 15 20 998.1 - 4.2
01/12:06pm 5.7 0.6 3.1 83 1.1 WSW 19 24 10 13 997.4 - 2.2
01/12:00pm 5.9 1.5 2.5 79 1.4 WNW 15 26 8 14 996.8 996.9 1.8
01/11:30am 6.0 2.1 3.4 83 1.1 WNW 13 15 7 8 996.1 - 1.8
01/11:00am 5.3 1.3 3.1 86 0.9 W 13 15 7 8 995.7 995.8 1.8
01/10:47am 5.2 0.8 2.8 84 1.0 W 15 20 8 11 995.5 - 1.8
01/10:30am 5.0 0.2 2.8 86 0.9 WSW 17 26 9 14 995.0 - 1.6
01/10:27am 5.1 0.1 3.4 89 0.7 SSW 19 30 10 16 995.2 - 1.4
01/10:00am 7.5 1.0 0.5 61 2.8 S 24 32 13 17 994.1 994.2 0.0
01/09:30am 7.6 3.0 -0.9 55 3.3 WSW 13 20 7 11 992.9 - 0.0
01/09:00am 7.0 -0.4 -0.7 58 3.0 NW 28 37 15 20 991.2 991.3 19.0
01/08:30am 5.5 -1.8 -0.2 67 2.2 NW 28 35 15 19 990.5 - 19.0
01/08:00am 5.0 -2.6 0.7 74 1.7 NNW 30 44 16 24 989.2 989.3 19.0
01/07:30am 4.8 -3.3 0.7 75 1.6 NNW 33 48 18 26 988.9 - 19.0
01/07:06am 4.8 -5.2 1.0 76 1.5 NNW 43 63 23 34 988.6 - 19.0
01/07:00am 4.8 -4.4 1.0 76 1.5 NNW 39 54 21 29 988.6 988.7 19.0
01/06:30am 4.7 -3.4 1.2 78 1.4 NNW 33 48 18 26 988.8 - 19.0
01/06:07am 5.3 -2.8 0.7 72 1.8 NW 33 52 18 28 989.3 - 18.8
01/06:00am 5.3 -1.5 0.7 72 1.8 NW 26 35 14 19 989.5 989.6 18.8
01/05:30am 5.2 -2.3 1.2 75 1.6 NNW 30 41 16 22 988.6 - 18.4
01/05:00am 5.3 -2.9 0.2 69 2.0 NW 33 44 18 24 988.4 988.5 18.4
01/04:30am 5.8 -1.9 0.2 67 2.2 NNW 30 48 16 26 988.2 - 18.4
01/04:00am 6.0 -2.6 0.4 67 2.2 NNW 35 54 19 29 988.1 988.2 18.4
01/03:52am 6.2 -1.0 0.4 66 2.3 NNW 28 46 15 25 988.1 - 18.4
01/03:30am 5.0 -1.0 1.0 75 1.6 N 22 33 12 18 988.0 - 18.4
01/03:00am 5.3 -0.4 0.5 71 1.9 NNW 20 33 11 18 987.9 988.0 18.4
01/02:30am 5.6 -2.0 0.8 71 1.9 NNW 30 44 16 24 987.5 - 18.4
01/02:00am 5.8 -1.4 0.5 69 2.1 NNW 28 48 15 26 987.5 987.6 18.4
01/01:30am 5.1 -2.5 0.5 72 1.8 NW 30 44 16 24 987.1 - 18.4
01/01:00am 5.4 -2.7 0.9 73 1.8 NNW 33 50 18 27 986.5 986.6 18.4
01/12:30am 5.4 -3.4 1.2 74 1.7 NNW 37 54 20 29 986.1 - 18.4
01/12:00am 4.3 -4.1 1.8 84 1.0 NNW 35 50 19 27 985.8 985.9 18.4
 
Date/Time
EST
Temp
°C
App
Temp
°C
Dew
Point
Rel
Hum
%
Delta-T
°C
Wind Press
QNH
hPa
Press
MSL
hPa
Rain
since 9 am
mm
Dir
 
Spd
km/h
Gust
km/h
Spd
kts
Gust
kts
31/11:30pm 4.4 -3.3 2.2 86 0.9 NNW 32 50 17 27 985.3 - 18.4
31/11:00pm 5.3 -4.1 2.4 81 1.2 NW 41 56 22 30 985.9 986.0 18.0
31/10:30pm 5.9 -3.2 2.0 76 1.6 NW 39 57 21 31 984.5 - 17.4
31/10:00pm 6.1 -2.2 2.0 75 1.7 NW 35 54 19 29 984.7 984.8 17.2
31/09:30pm 6.2 -2.6 1.5 72 1.9 NW 37 50 20 27 984.2 - 17.0
31/09:00pm 6.3 -3.7 2.2 75 1.7 NW 44 63 24 34 984.1 984.2 17.0
31/08:45pm 6.7 -2.1 1.3 68 2.2 NNW 37 65 20 35 983.0 - 17.0
31/08:30pm 6.4 -1.0 2.1 74 1.8 NNW 30 39 16 21 982.7 - 17.0
31/08:00pm 6.5 -0.8 2.7 77 1.6 NNW 30 48 16 26 982.3 982.3 16.8
31/07:48pm 6.9 -0.5 2.1 71 2.0 NNW 30 52 16 28 982.9 - 16.0
31/07:30pm 6.9 -1.1 1.8 70 2.1 NNW 33 43 18 23 982.6 - 15.8
31/07:00pm 7.4 -5.0 1.6 66 2.4 NW 56 78 30 42 981.9 981.9 15.8
31/06:55pm 7.6 -4.4 1.3 64 2.5 NW 54 78 29 42 981.8 - 15.8
31/06:49pm 8.4 0.5 1.2 60 2.9 NNW 32 57 17 31 982.1 - 15.8
31/06:30pm 8.5 1.3 1.0 59 3.0 NNW 28 37 15 20 981.6 - 15.8
31/06:04pm 8.5 1.6 2.4 65 2.6 NNW 28 50 15 27 981.6 - 15.8
31/06:00pm 8.1 2.8 3.0 70 2.2 NNW 20 32 11 17 981.6 981.6 15.8
31/05:30pm 7.5 3.7 4.1 79 1.5 N 13 17 7 9 981.4 - 15.8
31/05:00pm 7.0 3.4 5.0 87 0.9 N 13 19 7 10 980.8 980.8 15.8
31/04:30pm 7.1 3.1 5.1 87 0.9 N 15 24 8 13 981.9 - 15.8
31/04:00pm 6.9 2.3 3.9 81 1.3 N 17 24 9 13 982.0 982.0 15.8
31/03:30pm 6.8 4.0 5.2 89 0.7 N 9 13 5 7 981.4 - 15.8
31/03:00pm 6.6 3.7 4.8 88 0.8 S 9 11 5 6 981.5 981.5 15.8
31/02:30pm 6.2 3.6 4.4 88 0.8 SSW 7 11 4 6 983.1 - 15.4
31/02:00pm 6.8 3.7 5.5 91 0.6 SW 11 15 6 8 982.5 982.5 15.0
31/01:30pm 7.1 4.1 6.2 94 0.4 SW 11 15 6 8 982.4 - 13.8
31/01:00pm 7.2 4.6 6.3 94 0.4 S 9 11 5 6 982.5 982.5 11.0
31/12:30pm 7.3 5.1 6.2 93 0.5 SE 7 11 4 6 982.7 - 8.2
31/12:00pm 7.3 4.8 6.7 96 0.3 S 9 11 5 6 983.4 983.5 6.6
31/11:30am 7.4 6.2 6.5 94 0.4 ENE 2 7 1 4 984.4 - 5.2
31/11:00am 7.4 4.9 6.5 94 0.4 NE 9 13 5 7 984.9 985.0 4.4
31/10:30am 7.4 5.8 6.5 94 0.4 WSW 4 7 2 4 986.2 - 2.4
31/10:00am 7.6 5.1 6.5 93 0.5 NNW 9 9 5 5 986.7 986.8 1.0
31/09:53am 7.6 5.1 6.5 93 0.5 NNW 9 11 5 6 986.8 - 0.8
31/09:30am 7.6 5.1 6.5 93 0.5 NNE 9 11 5 6 986.7 - 0.4
31/09:00am 7.7 5.6 6.6 93 0.5 N 7 9 4 5 986.9 987.0 10.2
31/08:30am 7.5 5.5 6.4 93 0.5 N 6 9 3 5 988.8 - 10.0
31/08:00am 7.6 5.0 6.3 91 0.6 N 9 11 5 6 989.0 989.1 9.8
31/07:30am 7.4 4.1 6.3 93 0.5 NNE 13 17 7 9 989.0 - 9.8
31/07:00am 7.2 3.8 6.1 93 0.5 NNE 13 17 7 9 989.7 989.8 9.0
31/06:30am 7.4 4.7 5.6 88 0.8 W 9 15 5 8 989.9 - 8.0
31/06:00am 7.4 5.0 5.4 87 0.9 SE 7 9 4 5 989.6 989.7 7.8
31/05:30am 7.8 3.6 5.6 86 1.0 S 17 24 9 13 989.9 - 7.8
31/05:00am 8.4 3.2 7.1 91 0.6 SSW 24 33 13 18 990.2 990.3 6.8
31/04:41am 9.7 5.1 8.1 90 0.8 SSW 22 35 12 19 989.7 - 5.0
31/04:30am 10.4 6.1 8.0 85 1.2 WSW 20 28 11 15 989.2 - 3.4
31/04:00am 11.3 3.9 6.7 73 2.2 WNW 35 56 19 30 987.8 987.9 2.0
31/03:30am 10.9 7.7 7.0 77 1.9 NNW 13 17 7 9 988.6 - 0.8
31/03:00am 11.9 7.0 6.7 70 2.5 W 22 33 12 18 988.9 989.0 0.8
31/02:30am 13.1 6.6 6.5 64 3.2 NW 30 50 16 27 989.1 - 0.4
31/02:18am 13.8 6.6 5.1 55 4.1 NNW 32 54 17 29 988.3 - 0.2
31/02:00am 13.7 5.6 5.3 57 4.0 NNW 37 50 20 27 988.1 988.2 0.2
31/01:30am 13.9 6.5 3.9 51 4.6 NNW 32 41 17 22 987.8 - 0.2
31/01:08am 13.4 5.8 4.1 53 4.2 NNW 33 52 18 28 988.0 - 0.2
31/01:00am 13.6 5.3 4.1 52 4.4 NW 37 48 20 26 987.9 988.0 0.2
31/12:41am 13.4 5.1 4.1 53 4.2 NNW 37 56 20 30 988.1 - 0.2
31/12:30am 13.6 5.5 3.5 50 4.5 NNW 35 50 19 27 987.9 - 0.2
31/12:00am 13.6 3.9 3.8 51 4.5 NW 44 65 24 35 988.7 988.8 0.2
 
Date/Time
EST
Temp
°C
App
Temp
°C
Dew
Point
Rel
Hum
%
Delta-T
°C
Wind Press
QNH
hPa
Press
MSL
hPa
Rain
since 9 am
mm
Dir
 
Spd
km/h
Gust
km/h
Spd
kts
Gust
kts
30/11:43pm 13.6 5.1 3.2 49 4.7 NNW 37 56 20 30 989.2 - 0.2
30/11:30pm 12.9 5.5 4.2 55 4.0 NNW 32 43 17 23 989.3 - 0.2
30/11:00pm 13.2 4.6 4.6 56 4.0 NW 39 50 21 27 989.1 989.2 0.2
30/10:58pm 13.3 4.7 4.5 55 4.0 NW 39 50 21 27 989.2 - 0.2
30/10:30pm 14.6 2.2 2.6 44 5.3 NW 57 78 31 42 989.2 - 0.2
30/10:08pm 14.5 3.7 1.9 42 5.5 NW 48 72 26 39 989.0 - 0.2
30/10:00pm 13.9 5.0 2.8 47 5.0 NNW 39 52 21 28 989.8 989.9 0.2
30/09:30pm 14.0 3.7 2.9 47 4.9 NW 46 76 25 41 989.5 - 0.2
30/09:11pm 12.8 5.4 4.1 55 3.9 NW 32 57 17 31 990.0 - 0.2
30/09:00pm 12.5 6.7 4.5 58 3.7 NNW 24 33 13 18 990.2 990.3 0.2
30/08:30pm 11.7 7.1 5.5 66 2.9 NNW 19 30 10 16 991.0 - 0.2
30/08:00pm 12.1 5.0 5.3 63 3.2 NNW 32 43 17 23 991.4 991.5 0.2
30/07:30pm 11.8 5.7 4.9 62 3.2 NW 26 37 14 20 991.8 - 0.2
30/07:00pm 11.9 6.3 5.3 64 3.1 NNW 24 33 13 18 992.2 992.3 0.2
30/06:30pm 12.8 4.7 5.1 59 3.6 NW 37 50 20 27 992.5 - 0.2
30/06:16pm 12.8 6.1 5.6 61 3.4 NW 30 54 16 29 992.6 - 0.2
30/06:00pm 12.1 6.9 7.2 72 2.4 NW 24 33 13 18 992.9 993.0 0.2
30/05:30pm 11.9 5.2 7.2 73 2.3 NW 32 43 17 23 993.0 - 0.2
30/05:00pm 12.1 6.4 6.9 70 2.5 NW 26 35 14 19 992.7 992.8 0.2
30/04:30pm 12.3 5.3 6.9 69 2.6 NW 33 43 18 23 992.3 - 0.2
30/04:03pm 12.6 6.5 6.8 68 2.8 NW 28 46 15 25 992.7 - 0.2
30/04:00pm 12.6 7.3 6.8 68 2.8 NW 24 46 13 25 992.8 992.9 0.2
30/03:30pm 12.3 7.4 6.7 68 2.7 NW 22 33 12 18 992.3 - 0.2
30/03:00pm 12.0 5.1 6.6 69 2.6 NW 32 50 17 27 992.9 993.0 0.2
30/02:35pm 11.9 5.1 6.7 70 2.5 NW 32 50 17 27 993.0 - 0.2
30/02:30pm 11.8 5.4 6.8 71 2.4 NW 30 44 16 24 993.0 - 0.2
30/02:00pm 11.7 5.6 6.7 71 2.4 NW 28 50 15 27 993.8 993.9 0.2
30/01:41pm 11.7 3.5 6.5 70 2.5 NW 39 57 21 31 994.0 - 0.2
30/01:30pm 12.0 2.9 5.9 66 2.9 NW 43 56 23 30 994.1 - 0.0
30/01:13pm 12.1 2.8 6.0 66 2.9 NW 44 63 24 34 994.0 - 0.0
30/01:00pm 12.8 2.6 5.4 60 3.5 NW 48 59 26 32 994.0 994.1 0.0
30/12:30pm 13.2 2.6 5.1 58 3.8 NW 50 70 27 38 993.8 - 0.0
30/12:11pm 13.0 3.1 4.8 57 3.8 NW 46 67 25 36 993.7 - 0.0
30/12:00pm 12.7 2.6 5.5 61 3.4 NW 48 61 26 33 993.8 993.9 0.0
30/11:30am 12.3 0.5 5.5 63 3.2 NW 57 76 31 41 993.8 - 0.0
30/11:00am 13.3 0.9 4.4 55 4.1 NW 59 78 32 42 993.8 993.9 0.0
30/10:30am 13.3 1.1 3.9 53 4.3 NW 57 76 31 41 994.3 - 0.0
30/10:00am 12.5 0.9 3.7 55 4.0 NW 54 72 29 39 994.4 994.5 0.0
30/09:35am 12.2 1.6 3.3 54 3.9 NW 48 67 26 36 994.6 - 0.0
30/09:30am 12.1 0.8 3.4 55 3.9 NW 52 67 28 36 994.5 - 0.0
30/09:14am 11.7 2.8 2.9 55 3.8 NW 39 57 21 31 994.5 - 0.0
30/09:00am 11.1 2.1 2.6 56 3.7 NW 39 52 21 28 994.6 994.7 8.6
30/08:37am 10.4 0.1 2.5 58 3.4 NW 46 65 25 35 995.0 - 8.6
30/08:30am 10.4 -0.7 2.5 58 3.4 NW 50 65 27 35 995.2 - 8.6
30/08:21am 10.3 2.0 2.4 58 3.4 NW 35 56 19 30 995.3 - 8.6

Other Formats:

Comma delimited format used in spreadsheet applications
http://www.bom.gov.au/fwo/IDT60801/IDT60801.94975.axf

JavaScript Object Notation format (JSON) in row-major order
http://www.bom.gov.au/fwo/IDT60801/IDT60801.94975.json